sensor_id;sensor_type;location;lat;lon;timestamp;temperature;humidity
48648;DHT22;34437;-33.956;151.076;2023-03-01T00:00:51;27.30;62.40
48648;DHT22;34437;-33.956;151.076;2023-03-01T00:03:14;27.30;61.90
48648;DHT22;34437;-33.956;151.076;2023-03-01T00:05:36;27.20;61.90
48648;DHT22;34437;-33.956;151.076;2023-03-01T00:07:59;27.30;61.20
48648;DHT22;34437;-33.956;151.076;2023-03-01T00:10:21;27.30;59.30
48648;DHT22;34437;-33.956;151.076;2023-03-01T00:12:44;27.20;58.30
48648;DHT22;34437;-33.956;151.076;2023-03-01T00:15:07;27.20;56.50
48648;DHT22;34437;-33.956;151.076;2023-03-01T00:17:29;27.20;55.80
48648;DHT22;34437;-33.956;151.076;2023-03-01T00:19:52;27.20;54.40
48648;DHT22;34437;-33.956;151.076;2023-03-01T00:22:14;27.20;54.60
48648;DHT22;34437;-33.956;151.076;2023-03-01T00:24:36;27.10;53.70
48648;DHT22;34437;-33.956;151.076;2023-03-01T00:26:59;27.20;53.80
48648;DHT22;34437;-33.956;151.076;2023-03-01T00:29:23;27.10;53.30
48648;DHT22;34437;-33.956;151.076;2023-03-01T00:31:45;27.20;54.50
48648;DHT22;34437;-33.956;151.076;2023-03-01T00:34:09;27.20;54.90
48648;DHT22;34437;-33.956;151.076;2023-03-01T00:36:36;27.20;55.40
48648;DHT22;34437;-33.956;151.076;2023-03-01T00:38:59;27.20;55.20
48648;DHT22;34437;-33.956;151.076;2023-03-01T00:41:22;27.20;54.00
48648;DHT22;34437;-33.956;151.076;2023-03-01T00:43:45;27.20;53.50
48648;DHT22;34437;-33.956;151.076;2023-03-01T00:46:10;27.30;53.80
48648;DHT22;34437;-33.956;151.076;2023-03-01T00:48:33;27.20;54.60
48648;DHT22;34437;-33.956;151.076;2023-03-01T00:50:56;27.30;55.70
48648;DHT22;34437;-33.956;151.076;2023-03-01T00:53:18;27.20;56.10
48648;DHT22;34437;-33.956;151.076;2023-03-01T00:55:40;27.20;56.00
48648;DHT22;34437;-33.956;151.076;2023-03-01T00:58:03;27.20;55.70
48648;DHT22;34437;-33.956;151.076;2023-03-01T01:00:25;27.30;56.00
48648;DHT22;34437;-33.956;151.076;2023-03-01T01:02:49;27.30;56.40
48648;DHT22;34437;-33.956;151.076;2023-03-01T01:05:12;27.30;57.40
48648;DHT22;34437;-33.956;151.076;2023-03-01T01:07:35;27.30;58.00
48648;DHT22;34437;-33.956;151.076;2023-03-01T01:09:57;27.40;58.80
48648;DHT22;34437;-33.956;151.076;2023-03-01T01:12:19;27.40;59.00
48648;DHT22;34437;-33.956;151.076;2023-03-01T01:14:42;27.40;59.10
48648;DHT22;34437;-33.956;151.076;2023-03-01T01:17:05;27.40;59.40
48648;DHT22;34437;-33.956;151.076;2023-03-01T01:19:27;27.40;60.10
48648;DHT22;34437;-33.956;151.076;2023-03-01T01:21:50;27.50;59.50
48648;DHT22;34437;-33.956;151.076;2023-03-01T01:24:13;27.50;59.80
48648;DHT22;34437;-33.956;151.076;2023-03-01T01:26:35;27.50;60.10
48648;DHT22;34437;-33.956;151.076;2023-03-01T01:28:58;27.50;60.20
48648;DHT22;34437;-33.956;151.076;2023-03-01T01:31:21;27.50;60.50
48648;DHT22;34437;-33.956;151.076;2023-03-01T01:33:47;27.50;60.60
48648;DHT22;34437;-33.956;151.076;2023-03-01T01:36:10;27.50;60.70
48648;DHT22;34437;-33.956;151.076;2023-03-01T01:38:34;27.50;60.70
48648;DHT22;34437;-33.956;151.076;2023-03-01T01:40:56;27.60;61.00
48648;DHT22;34437;-33.956;151.076;2023-03-01T01:45:51;27.60;60.80
48648;DHT22;34437;-33.956;151.076;2023-03-01T01:48:24;27.60;60.80
48648;DHT22;34437;-33.956;151.076;2023-03-01T01:51:01;27.60;60.70
48648;DHT22;34437;-33.956;151.076;2023-03-01T01:53:25;27.60;60.50
48648;DHT22;34437;-33.956;151.076;2023-03-01T01:55:54;27.60;60.50
48648;DHT22;34437;-33.956;151.076;2023-03-01T01:58:21;27.60;60.50
48648;DHT22;34437;-33.956;151.076;2023-03-01T02:00:44;27.60;60.40
48648;DHT22;34437;-33.956;151.076;2023-03-01T02:03:16;27.60;60.40
48648;DHT22;34437;-33.956;151.076;2023-03-01T02:08:38;27.60;60.50
48648;DHT22;34437;-33.956;151.076;2023-03-01T02:11:01;27.60;60.50
48648;DHT22;34437;-33.956;151.076;2023-03-01T02:13:26;27.70;60.50
48648;DHT22;34437;-33.956;151.076;2023-03-01T02:15:49;27.60;60.30
48648;DHT22;34437;-33.956;151.076;2023-03-01T02:18:14;27.70;60.40
48648;DHT22;34437;-33.956;151.076;2023-03-01T02:21:00;27.70;60.10
48648;DHT22;34437;-33.956;151.076;2023-03-01T02:23:27;27.70;59.90
48648;DHT22;34437;-33.956;151.076;2023-03-01T02:28:32;27.70;59.60
48648;DHT22;34437;-33.956;151.076;2023-03-01T02:30:55;27.70;59.80
48648;DHT22;34437;-33.956;151.076;2023-03-01T02:33:37;27.70;59.50
48648;DHT22;34437;-33.956;151.076;2023-03-01T02:36:07;27.70;59.40
48648;DHT22;34437;-33.956;151.076;2023-03-01T02:38:32;27.80;59.60
48648;DHT22;34437;-33.956;151.076;2023-03-01T02:40:55;27.80;59.00
48648;DHT22;34437;-33.956;151.076;2023-03-01T02:43:20;27.80;59.40
48648;DHT22;34437;-33.956;151.076;2023-03-01T02:45:52;27.80;59.60
48648;DHT22;34437;-33.956;151.076;2023-03-01T02:48:14;27.90;59.80
48648;DHT22;34437;-33.956;151.076;2023-03-01T02:53:49;28.00;60.00
48648;DHT22;34437;-33.956;151.076;2023-03-01T02:56:16;28.00;59.60
48648;DHT22;34437;-33.956;151.076;2023-03-01T02:58:40;28.00;59.30
48648;DHT22;34437;-33.956;151.076;2023-03-01T03:01:07;28.10;59.10
48648;DHT22;34437;-33.956;151.076;2023-03-01T03:03:30;28.10;58.30
48648;DHT22;34437;-33.956;151.076;2023-03-01T03:05:52;28.10;58.00
48648;DHT22;34437;-33.956;151.076;2023-03-01T03:08:15;28.10;57.00
48648;DHT22;34437;-33.956;151.076;2023-03-01T03:10:45;28.00;56.20
48648;DHT22;34437;-33.956;151.076;2023-03-01T03:13:10;27.70;55.70
48648;DHT22;34437;-33.956;151.076;2023-03-01T03:15:33;27.50;54.90
48648;DHT22;34437;-33.956;151.076;2023-03-01T03:18:00;27.20;54.10
48648;DHT22;34437;-33.956;151.076;2023-03-01T03:20:26;26.90;53.80
48648;DHT22;34437;-33.956;151.076;2023-03-01T03:22:51;26.70;53.70
48648;DHT22;34437;-33.956;151.076;2023-03-01T03:25:14;26.50;53.50
48648;DHT22;34437;-33.956;151.076;2023-03-01T03:27:37;26.30;53.80
48648;DHT22;34437;-33.956;151.076;2023-03-01T03:29:59;26.20;53.70
48648;DHT22;34437;-33.956;151.076;2023-03-01T03:32:22;26.10;54.10
48648;DHT22;34437;-33.956;151.076;2023-03-01T03:34:45;26.00;53.90
48648;DHT22;34437;-33.956;151.076;2023-03-01T03:37:07;25.80;53.80
48648;DHT22;34437;-33.956;151.076;2023-03-01T03:39:49;25.70;54.10
48648;DHT22;34437;-33.956;151.076;2023-03-01T03:42:16;25.60;54.30
48648;DHT22;34437;-33.956;151.076;2023-03-01T03:44:41;25.40;54.60
48648;DHT22;34437;-33.956;151.076;2023-03-01T03:47:04;25.30;54.80
48648;DHT22;34437;-33.956;151.076;2023-03-01T03:49:26;25.30;55.00
48648;DHT22;34437;-33.956;151.076;2023-03-01T03:51:48;25.20;55.00
48648;DHT22;34437;-33.956;151.076;2023-03-01T03:54:11;25.20;55.20
48648;DHT22;34437;-33.956;151.076;2023-03-01T03:56:33;25.10;54.90
48648;DHT22;34437;-33.956;151.076;2023-03-01T03:58:56;25.00;54.70
48648;DHT22;34437;-33.956;151.076;2023-03-01T04:01:19;24.90;54.60
48648;DHT22;34437;-33.956;151.076;2023-03-01T04:03:41;24.80;55.00
48648;DHT22;34437;-33.956;151.076;2023-03-01T04:06:08;24.80;55.30
48648;DHT22;34437;-33.956;151.076;2023-03-01T04:08:30;24.60;55.00
48648;DHT22;34437;-33.956;151.076;2023-03-01T04:11:00;24.50;55.10
48648;DHT22;34437;-33.956;151.076;2023-03-01T04:13:42;24.40;55.40
48648;DHT22;34437;-33.956;151.076;2023-03-01T04:16:05;24.30;55.10
48648;DHT22;34437;-33.956;151.076;2023-03-01T04:18:28;24.30;55.30
48648;DHT22;34437;-33.956;151.076;2023-03-01T04:20:50;24.20;55.30
48648;DHT22;34437;-33.956;151.076;2023-03-01T04:23:18;24.10;55.30
48648;DHT22;34437;-33.956;151.076;2023-03-01T04:25:44;24.00;55.50
48648;DHT22;34437;-33.956;151.076;2023-03-01T04:28:07;23.90;55.50
48648;DHT22;34437;-33.956;151.076;2023-03-01T04:30:30;23.80;55.60
48648;DHT22;34437;-33.956;151.076;2023-03-01T04:32:57;23.80;55.40
48648;DHT22;34437;-33.956;151.076;2023-03-01T04:35:19;23.70;55.50
48648;DHT22;34437;-33.956;151.076;2023-03-01T04:37:42;23.70;55.80
48648;DHT22;34437;-33.956;151.076;2023-03-01T04:40:05;23.60;55.60
48648;DHT22;34437;-33.956;151.076;2023-03-01T04:42:46;23.60;55.80
48648;DHT22;34437;-33.956;151.076;2023-03-01T04:45:09;23.50;55.80
48648;DHT22;34437;-33.956;151.076;2023-03-01T04:47:37;23.50;56.10
48648;DHT22;34437;-33.956;151.076;2023-03-01T04:50:00;23.50;56.90
48648;DHT22;34437;-33.956;151.076;2023-03-01T04:52:22;23.60;56.60
48648;DHT22;34437;-33.956;151.076;2023-03-01T04:54:45;23.70;56.40
48648;DHT22;34437;-33.956;151.076;2023-03-01T04:57:08;23.80;55.80
48648;DHT22;34437;-33.956;151.076;2023-03-01T04:59:30;23.90;55.60
48648;DHT22;34437;-33.956;151.076;2023-03-01T05:01:54;23.90;55.30
48648;DHT22;34437;-33.956;151.076;2023-03-01T05:04:17;23.90;55.30
48648;DHT22;34437;-33.956;151.076;2023-03-01T05:06:40;23.90;55.00
48648;DHT22;34437;-33.956;151.076;2023-03-01T05:09:02;24.00;55.00
48648;DHT22;34437;-33.956;151.076;2023-03-01T05:11:25;23.90;55.00
48648;DHT22;34437;-33.956;151.076;2023-03-01T05:13:49;23.90;54.70
48648;DHT22;34437;-33.956;151.076;2023-03-01T05:16:16;24.00;54.80
48648;DHT22;34437;-33.956;151.076;2023-03-01T05:18:40;24.00;54.70
48648;DHT22;34437;-33.956;151.076;2023-03-01T05:21:08;24.00;54.80
48648;DHT22;34437;-33.956;151.076;2023-03-01T05:23:32;24.00;54.80
48648;DHT22;34437;-33.956;151.076;2023-03-01T05:26:00;24.00;54.70
48648;DHT22;34437;-33.956;151.076;2023-03-01T05:28:24;24.00;54.60
48648;DHT22;34437;-33.956;151.076;2023-03-01T05:30:47;24.00;54.60
48648;DHT22;34437;-33.956;151.076;2023-03-01T05:33:09;24.00;55.40
48648;DHT22;34437;-33.956;151.076;2023-03-01T05:35:34;24.10;54.60
48648;DHT22;34437;-33.956;151.076;2023-03-01T05:37:57;24.10;54.30
48648;DHT22;34437;-33.956;151.076;2023-03-01T05:40:22;24.10;54.30
48648;DHT22;34437;-33.956;151.076;2023-03-01T05:42:52;24.10;54.20
48648;DHT22;34437;-33.956;151.076;2023-03-01T05:45:16;24.10;54.30
48648;DHT22;34437;-33.956;151.076;2023-03-01T05:47:41;24.10;54.00
48648;DHT22;34437;-33.956;151.076;2023-03-01T05:50:06;24.10;54.20
48648;DHT22;34437;-33.956;151.076;2023-03-01T05:52:29;24.10;54.20
48648;DHT22;34437;-33.956;151.076;2023-03-01T05:54:51;24.10;54.20
48648;DHT22;34437;-33.956;151.076;2023-03-01T05:57:13;24.10;54.20
48648;DHT22;34437;-33.956;151.076;2023-03-01T05:59:36;24.10;53.80
48648;DHT22;34437;-33.956;151.076;2023-03-01T06:01:58;24.20;53.90
48648;DHT22;34437;-33.956;151.076;2023-03-01T06:04:21;24.20;53.70
48648;DHT22;34437;-33.956;151.076;2023-03-01T06:06:43;24.20;53.70
48648;DHT22;34437;-33.956;151.076;2023-03-01T06:09:06;24.20;53.40
48648;DHT22;34437;-33.956;151.076;2023-03-01T06:11:30;24.20;53.30
48648;DHT22;34437;-33.956;151.076;2023-03-01T06:13:53;24.20;53.20
48648;DHT22;34437;-33.956;151.076;2023-03-01T06:16:15;24.30;53.20
48648;DHT22;34437;-33.956;151.076;2023-03-01T06:18:38;24.30;53.10
48648;DHT22;34437;-33.956;151.076;2023-03-01T06:21:00;24.30;53.30
48648;DHT22;34437;-33.956;151.076;2023-03-01T06:23:23;24.30;53.30
48648;DHT22;34437;-33.956;151.076;2023-03-01T06:25:46;24.30;53.10
48648;DHT22;34437;-33.956;151.076;2023-03-01T06:28:08;24.30;53.20
48648;DHT22;34437;-33.956;151.076;2023-03-01T06:30:30;24.30;53.20
48648;DHT22;34437;-33.956;151.076;2023-03-01T06:32:53;24.30;53.40
48648;DHT22;34437;-33.956;151.076;2023-03-01T06:35:22;24.30;53.30
48648;DHT22;34437;-33.956;151.076;2023-03-01T06:37:45;24.30;53.30
48648;DHT22;34437;-33.956;151.076;2023-03-01T06:40:09;24.20;53.20
48648;DHT22;34437;-33.956;151.076;2023-03-01T06:42:33;24.30;53.40
48648;DHT22;34437;-33.956;151.076;2023-03-01T06:44:55;24.20;53.30
48648;DHT22;34437;-33.956;151.076;2023-03-01T06:47:18;24.20;53.70
48648;DHT22;34437;-33.956;151.076;2023-03-01T06:49:41;24.20;53.60
48648;DHT22;34437;-33.956;151.076;2023-03-01T06:52:03;24.20;53.60
48648;DHT22;34437;-33.956;151.076;2023-03-01T06:54:26;24.10;53.60
48648;DHT22;34437;-33.956;151.076;2023-03-01T06:56:49;24.10;53.60
48648;DHT22;34437;-33.956;151.076;2023-03-01T06:59:11;24.10;53.60
48648;DHT22;34437;-33.956;151.076;2023-03-01T07:01:34;24.10;53.60
48648;DHT22;34437;-33.956;151.076;2023-03-01T07:03:56;24.00;53.40
48648;DHT22;34437;-33.956;151.076;2023-03-01T07:06:19;24.00;53.50
48648;DHT22;34437;-33.956;151.076;2023-03-01T07:08:41;24.00;53.60
48648;DHT22;34437;-33.956;151.076;2023-03-01T07:11:04;23.90;53.50
48648;DHT22;34437;-33.956;151.076;2023-03-01T07:13:27;23.90;53.50
48648;DHT22;34437;-33.956;151.076;2023-03-01T07:15:50;23.80;53.40
48648;DHT22;34437;-33.956;151.076;2023-03-01T07:18:12;23.80;53.80
48648;DHT22;34437;-33.956;151.076;2023-03-01T07:20:35;23.70;53.60
48648;DHT22;34437;-33.956;151.076;2023-03-01T07:22:57;23.60;53.70
48648;DHT22;34437;-33.956;151.076;2023-03-01T07:25:20;23.60;54.10
48648;DHT22;34437;-33.956;151.076;2023-03-01T07:27:43;23.50;54.00
48648;DHT22;34437;-33.956;151.076;2023-03-01T07:30:05;23.50;54.20
48648;DHT22;34437;-33.956;151.076;2023-03-01T07:32:28;23.40;54.30
48648;DHT22;34437;-33.956;151.076;2023-03-01T07:34:51;23.40;54.50
48648;DHT22;34437;-33.956;151.076;2023-03-01T07:37:14;23.30;54.50
48648;DHT22;34437;-33.956;151.076;2023-03-01T07:39:37;23.20;54.60
48648;DHT22;34437;-33.956;151.076;2023-03-01T07:41:59;23.10;54.80
48648;DHT22;34437;-33.956;151.076;2023-03-01T07:44:22;23.10;54.80
48648;DHT22;34437;-33.956;151.076;2023-03-01T07:46:44;23.00;55.00
48648;DHT22;34437;-33.956;151.076;2023-03-01T07:49:07;22.90;55.00
48648;DHT22;34437;-33.956;151.076;2023-03-01T07:51:30;22.90;55.20
48648;DHT22;34437;-33.956;151.076;2023-03-01T07:53:52;22.80;55.30
48648;DHT22;34437;-33.956;151.076;2023-03-01T07:56:15;22.80;55.40
48648;DHT22;34437;-33.956;151.076;2023-03-01T07:58:41;22.70;55.30
48648;DHT22;34437;-33.956;151.076;2023-03-01T08:01:05;22.60;55.50
48648;DHT22;34437;-33.956;151.076;2023-03-01T08:03:27;22.60;55.80
48648;DHT22;34437;-33.956;151.076;2023-03-01T08:05:50;22.50;56.20
48648;DHT22;34437;-33.956;151.076;2023-03-01T08:08:12;22.50;56.20
48648;DHT22;34437;-33.956;151.076;2023-03-01T08:10:36;22.50;55.90
48648;DHT22;34437;-33.956;151.076;2023-03-01T08:12:58;22.40;56.00
48648;DHT22;34437;-33.956;151.076;2023-03-01T08:15:21;22.40;56.20
48648;DHT22;34437;-33.956;151.076;2023-03-01T08:17:43;22.30;56.20
48648;DHT22;34437;-33.956;151.076;2023-03-01T08:20:06;22.20;56.50
48648;DHT22;34437;-33.956;151.076;2023-03-01T08:22:29;22.20;56.40
48648;DHT22;34437;-33.956;151.076;2023-03-01T08:24:51;22.20;56.50
48648;DHT22;34437;-33.956;151.076;2023-03-01T08:27:16;22.10;56.50
48648;DHT22;34437;-33.956;151.076;2023-03-01T08:29:38;22.10;56.60
48648;DHT22;34437;-33.956;151.076;2023-03-01T08:32:01;22.10;56.50
48648;DHT22;34437;-33.956;151.076;2023-03-01T08:34:23;22.00;56.40
48648;DHT22;34437;-33.956;151.076;2023-03-01T08:36:46;22.00;56.50
48648;DHT22;34437;-33.956;151.076;2023-03-01T08:39:10;21.90;56.60
48648;DHT22;34437;-33.956;151.076;2023-03-01T08:41:34;21.80;56.80
48648;DHT22;34437;-33.956;151.076;2023-03-01T08:43:57;21.80;56.80
48648;DHT22;34437;-33.956;151.076;2023-03-01T08:46:22;21.70;56.90
48648;DHT22;34437;-33.956;151.076;2023-03-01T08:48:44;21.70;56.80
48648;DHT22;34437;-33.956;151.076;2023-03-01T08:51:12;21.60;56.90
48648;DHT22;34437;-33.956;151.076;2023-03-01T08:53:35;21.60;56.90
48648;DHT22;34437;-33.956;151.076;2023-03-01T08:56:00;21.60;58.30
48648;DHT22;34437;-33.956;151.076;2023-03-01T08:58:24;21.60;58.30
48648;DHT22;34437;-33.956;151.076;2023-03-01T09:00:46;21.70;58.80
48648;DHT22;34437;-33.956;151.076;2023-03-01T09:03:08;21.80;59.40
48648;DHT22;34437;-33.956;151.076;2023-03-01T09:05:34;21.90;59.80
48648;DHT22;34437;-33.956;151.076;2023-03-01T09:07:58;22.00;60.20
48648;DHT22;34437;-33.956;151.076;2023-03-01T09:10:20;22.20;60.40
48648;DHT22;34437;-33.956;151.076;2023-03-01T09:12:43;22.30;61.60
48648;DHT22;34437;-33.956;151.076;2023-03-01T09:15:06;22.40;61.20
48648;DHT22;34437;-33.956;151.076;2023-03-01T09:17:28;22.50;61.40
48648;DHT22;34437;-33.956;151.076;2023-03-01T09:19:51;22.60;62.10
48648;DHT22;34437;-33.956;151.076;2023-03-01T09:22:13;22.80;62.10
48648;DHT22;34437;-33.956;151.076;2023-03-01T09:24:35;22.80;62.50
48648;DHT22;34437;-33.956;151.076;2023-03-01T09:26:58;22.90;62.50
48648;DHT22;34437;-33.956;151.076;2023-03-01T09:29:20;23.00;62.50
48648;DHT22;34437;-33.956;151.076;2023-03-01T09:31:44;23.00;62.70
48648;DHT22;34437;-33.956;151.076;2023-03-01T09:34:07;23.10;62.70
48648;DHT22;34437;-33.956;151.076;2023-03-01T09:36:29;23.20;62.90
48648;DHT22;34437;-33.956;151.076;2023-03-01T09:38:52;23.20;62.90
48648;DHT22;34437;-33.956;151.076;2023-03-01T09:41:22;23.30;63.00
48648;DHT22;34437;-33.956;151.076;2023-03-01T09:43:52;23.30;63.00
48648;DHT22;34437;-33.956;151.076;2023-03-01T09:46:16;23.40;63.00
48648;DHT22;34437;-33.956;151.076;2023-03-01T09:49:10;23.50;63.20
48648;DHT22;34437;-33.956;151.076;2023-03-01T09:51:35;23.60;63.00
48648;DHT22;34437;-33.956;151.076;2023-03-01T09:53:58;23.60;63.20
48648;DHT22;34437;-33.956;151.076;2023-03-01T09:59:55;23.80;63.40
48648;DHT22;34437;-33.956;151.076;2023-03-01T10:05:19;23.90;63.50
48648;DHT22;34437;-33.956;151.076;2023-03-01T10:07:46;23.90;63.40
48648;DHT22;34437;-33.956;151.076;2023-03-01T10:10:33;23.90;63.60
48648;DHT22;34437;-33.956;151.076;2023-03-01T10:12:55;23.90;63.80
48648;DHT22;34437;-33.956;151.076;2023-03-01T10:15:30;23.90;63.50
48648;DHT22;34437;-33.956;151.076;2023-03-01T10:18:20;23.90;63.50
48648;DHT22;34437;-33.956;151.076;2023-03-01T10:21:03;24.00;64.00
48648;DHT22;34437;-33.956;151.076;2023-03-01T10:23:35;24.00;64.10
48648;DHT22;34437;-33.956;151.076;2023-03-01T10:27:14;24.00;64.00
48648;DHT22;34437;-33.956;151.076;2023-03-01T10:29:09;24.10;64.10
48648;DHT22;34437;-33.956;151.076;2023-03-01T10:31:45;24.10;64.10
48648;DHT22;34437;-33.956;151.076;2023-03-01T10:34:17;24.10;64.10
48648;DHT22;34437;-33.956;151.076;2023-03-01T10:36:42;24.20;64.20
48648;DHT22;34437;-33.956;151.076;2023-03-01T10:39:18;24.20;64.20
48648;DHT22;34437;-33.956;151.076;2023-03-01T10:41:59;24.30;64.30
48648;DHT22;34437;-33.956;151.076;2023-03-01T10:44:49;24.30;64.40
48648;DHT22;34437;-33.956;151.076;2023-03-01T10:49:38;24.40;64.50
48648;DHT22;34437;-33.956;151.076;2023-03-01T10:52:21;24.40;64.40
48648;DHT22;34437;-33.956;151.076;2023-03-01T10:54:53;24.50;64.60
48648;DHT22;34437;-33.956;151.076;2023-03-01T10:57:29;24.60;64.50
48648;DHT22;34437;-33.956;151.076;2023-03-01T11:00:13;24.60;64.40
48648;DHT22;34437;-33.956;151.076;2023-03-01T11:02:51;24.60;64.40
48648;DHT22;34437;-33.956;151.076;2023-03-01T11:05:24;24.70;64.40
48648;DHT22;34437;-33.956;151.076;2023-03-01T11:07:57;24.70;64.40
48648;DHT22;34437;-33.956;151.076;2023-03-01T11:10:23;24.80;64.40
48648;DHT22;34437;-33.956;151.076;2023-03-01T11:12:51;24.80;64.40
48648;DHT22;34437;-33.956;151.076;2023-03-01T11:15:25;24.80;64.50
48648;DHT22;34437;-33.956;151.076;2023-03-01T11:17:48;24.90;64.30
48648;DHT22;34437;-33.956;151.076;2023-03-01T11:22:37;24.90;64.30
48648;DHT22;34437;-33.956;151.076;2023-03-01T11:25:04;25.00;64.30
48648;DHT22;34437;-33.956;151.076;2023-03-01T11:27:30;25.00;64.30
48648;DHT22;34437;-33.956;151.076;2023-03-01T11:33:05;25.00;64.30
48648;DHT22;34437;-33.956;151.076;2023-03-01T11:35:29;25.10;64.50
48648;DHT22;34437;-33.956;151.076;2023-03-01T11:40:33;25.10;64.20
48648;DHT22;34437;-33.956;151.076;2023-03-01T11:45:38;25.20;64.50
48648;DHT22;34437;-33.956;151.076;2023-03-01T11:48:18;25.20;64.60
48648;DHT22;34437;-33.956;151.076;2023-03-01T11:50:48;25.30;64.60
48648;DHT22;34437;-33.956;151.076;2023-03-01T11:53:19;25.30;64.50
48648;DHT22;34437;-33.956;151.076;2023-03-01T11:59:03;25.40;64.50
48648;DHT22;34437;-33.956;151.076;2023-03-01T12:06:44;25.50;64.50
48648;DHT22;34437;-33.956;151.076;2023-03-01T12:09:19;25.50;64.40
48648;DHT22;34437;-33.956;151.076;2023-03-01T12:20:22;25.60;64.50
48648;DHT22;34437;-33.956;151.076;2023-03-01T12:25:38;25.60;64.60
48648;DHT22;34437;-33.956;151.076;2023-03-01T12:34:36;25.70;64.60
48648;DHT22;34437;-33.956;151.076;2023-03-01T12:37:39;25.70;64.60
48648;DHT22;34437;-33.956;151.076;2023-03-01T12:40:02;25.70;64.70
48648;DHT22;34437;-33.956;151.076;2023-03-01T12:50:54;25.80;65.40
48648;DHT22;34437;-33.956;151.076;2023-03-01T12:53:35;25.80;65.70
48648;DHT22;34437;-33.956;151.076;2023-03-01T12:56:12;25.80;65.60
48648;DHT22;34437;-33.956;151.076;2023-03-01T12:58:42;25.80;65.50
48648;DHT22;34437;-33.956;151.076;2023-03-01T13:06:38;25.90;65.50
48648;DHT22;34437;-33.956;151.076;2023-03-01T13:11:47;25.90;65.40
48648;DHT22;34437;-33.956;151.076;2023-03-01T13:14:43;25.90;65.50
48648;DHT22;34437;-33.956;151.076;2023-03-01T13:17:33;26.00;65.70
48648;DHT22;34437;-33.956;151.076;2023-03-01T13:20:02;25.90;65.50
48648;DHT22;34437;-33.956;151.076;2023-03-01T13:22:31;26.00;66.20
48648;DHT22;34437;-33.956;151.076;2023-03-01T13:25:15;26.00;65.50
48648;DHT22;34437;-33.956;151.076;2023-03-01T13:27:37;26.00;65.40
48648;DHT22;34437;-33.956;151.076;2023-03-01T13:30:01;26.00;65.40
48648;DHT22;34437;-33.956;151.076;2023-03-01T13:32:36;26.10;65.50
48648;DHT22;34437;-33.956;151.076;2023-03-01T13:35:08;26.00;65.40
48648;DHT22;34437;-33.956;151.076;2023-03-01T13:37:45;26.00;65.40
48648;DHT22;34437;-33.956;151.076;2023-03-01T13:42:47;26.10;65.30
48648;DHT22;34437;-33.956;151.076;2023-03-01T13:47:42;26.10;65.20
48648;DHT22;34437;-33.956;151.076;2023-03-01T13:50:06;26.10;65.20
48648;DHT22;34437;-33.956;151.076;2023-03-01T13:52:48;26.10;65.20
48648;DHT22;34437;-33.956;151.076;2023-03-01T13:55:40;26.10;65.20
48648;DHT22;34437;-33.956;151.076;2023-03-01T13:58:16;26.10;65.30
48648;DHT22;34437;-33.956;151.076;2023-03-01T14:00:39;26.10;65.30
48648;DHT22;34437;-33.956;151.076;2023-03-01T14:05:25;26.10;65.20
48648;DHT22;34437;-33.956;151.076;2023-03-01T14:07:51;26.10;65.30
48648;DHT22;34437;-33.956;151.076;2023-03-01T14:10:14;26.10;65.30
48648;DHT22;34437;-33.956;151.076;2023-03-01T14:20:30;26.10;65.40
48648;DHT22;34437;-33.956;151.076;2023-03-01T14:22:58;26.20;65.40
48648;DHT22;34437;-33.956;151.076;2023-03-01T14:27:55;26.20;65.50
48648;DHT22;34437;-33.956;151.076;2023-03-01T14:30:27;26.20;65.50
48648;DHT22;34437;-33.956;151.076;2023-03-01T14:32:54;26.20;65.60
48648;DHT22;34437;-33.956;151.076;2023-03-01T14:35:26;26.20;65.60
48648;DHT22;34437;-33.956;151.076;2023-03-01T14:37:49;26.20;65.60
48648;DHT22;34437;-33.956;151.076;2023-03-01T14:40:27;26.20;65.50
48648;DHT22;34437;-33.956;151.076;2023-03-01T14:42:50;26.20;65.50
48648;DHT22;34437;-33.956;151.076;2023-03-01T14:45:13;26.30;65.60
48648;DHT22;34437;-33.956;151.076;2023-03-01T14:47:38;26.20;65.50
48648;DHT22;34437;-33.956;151.076;2023-03-01T14:50:25;26.20;65.70
48648;DHT22;34437;-33.956;151.076;2023-03-01T14:52:51;26.20;65.60
48648;DHT22;34437;-33.956;151.076;2023-03-01T14:55:42;26.20;65.70
48648;DHT22;34437;-33.956;151.076;2023-03-01T14:58:12;26.20;65.60
48648;DHT22;34437;-33.956;151.076;2023-03-01T15:00:35;26.20;65.70
48648;DHT22;34437;-33.956;151.076;2023-03-01T15:03:04;26.30;65.80
48648;DHT22;34437;-33.956;151.076;2023-03-01T15:05:32;26.20;65.70
48648;DHT22;34437;-33.956;151.076;2023-03-01T15:08:00;26.20;65.60
48648;DHT22;34437;-33.956;151.076;2023-03-01T15:10:25;26.20;65.60
48648;DHT22;34437;-33.956;151.076;2023-03-01T15:12:48;26.20;66.20
48648;DHT22;34437;-33.956;151.076;2023-03-01T15:17:55;26.20;65.60
48648;DHT22;34437;-33.956;151.076;2023-03-01T15:20:19;26.20;65.60
48648;DHT22;34437;-33.956;151.076;2023-03-01T15:22:47;26.20;65.60
48648;DHT22;34437;-33.956;151.076;2023-03-01T15:25:20;26.20;65.70
48648;DHT22;34437;-33.956;151.076;2023-03-01T15:27:47;26.20;65.70
48648;DHT22;34437;-33.956;151.076;2023-03-01T15:30:22;26.20;65.70
48648;DHT22;34437;-33.956;151.076;2023-03-01T15:32:45;26.20;65.70
48648;DHT22;34437;-33.956;151.076;2023-03-01T15:35:37;26.20;65.70
48648;DHT22;34437;-33.956;151.076;2023-03-01T15:38:01;26.20;65.80
48648;DHT22;34437;-33.956;151.076;2023-03-01T15:40:28;26.20;66.10
48648;DHT22;34437;-33.956;151.076;2023-03-01T15:42:53;26.20;66.20
48648;DHT22;34437;-33.956;151.076;2023-03-01T15:47:40;26.20;66.10
48648;DHT22;34437;-33.956;151.076;2023-03-01T15:50:03;26.20;66.10
48648;DHT22;34437;-33.956;151.076;2023-03-01T15:52:33;26.20;66.10
48648;DHT22;34437;-33.956;151.076;2023-03-01T15:55:04;26.20;66.10
48648;DHT22;34437;-33.956;151.076;2023-03-01T15:57:28;26.30;66.20
48648;DHT22;34437;-33.956;151.076;2023-03-01T15:59:51;26.20;66.10
48648;DHT22;34437;-33.956;151.076;2023-03-01T16:02:13;26.30;66.30
48648;DHT22;34437;-33.956;151.076;2023-03-01T16:04:36;26.20;66.20
48648;DHT22;34437;-33.956;151.076;2023-03-01T16:06:58;26.20;66.20
48648;DHT22;34437;-33.956;151.076;2023-03-01T16:09:25;26.20;66.10
48648;DHT22;34437;-33.956;151.076;2023-03-01T16:11:47;26.20;66.00
48648;DHT22;34437;-33.956;151.076;2023-03-01T16:14:10;26.20;66.00
48648;DHT22;34437;-33.956;151.076;2023-03-01T16:16:32;26.20;66.00
48648;DHT22;34437;-33.956;151.076;2023-03-01T16:18:54;26.30;66.10